sensor_id;sensor_type;location;lat;lon;timestamp;pressure;altitude;pressure_sealevel;temperature;humidity
11329;BME280;5719;42.714;23.732;2023-04-12T00:00:43;93443.66;;;7.69;93.25
11329;BME280;5719;42.714;23.732;2023-04-12T00:03:10;93437.25;;;7.75;93.26
11329;BME280;5719;42.714;23.732;2023-04-12T00:05:37;93447.53;;;7.75;93.17
11329;BME280;5719;42.714;23.732;2023-04-12T00:08:04;93448.13;;;7.78;92.32
11329;BME280;5719;42.714;23.732;2023-04-12T00:10:35;93453.72;;;7.83;92.49
11329;BME280;5719;42.714;23.732;2023-04-12T00:13:02;93448.56;;;7.72;92.91
11329;BME280;5719;42.714;23.732;2023-04-12T00:15:28;93449.75;;;7.79;93.20
11329;BME280;5719;42.714;23.732;2023-04-12T00:17:57;93426.84;;;7.65;93.45
11329;BME280;5719;42.714;23.732;2023-04-12T00:20:24;93442.84;;;7.80;93.52
11329;BME280;5719;42.714;23.732;2023-04-12T00:22:51;93438.28;;;7.72;93.38
11329;BME280;5719;42.714;23.732;2023-04-12T00:25:18;93438.78;;;7.66;93.87
11329;BME280;5719;42.714;23.732;2023-04-12T00:27:45;93428.72;;;7.74;94.34
11329;BME280;5719;42.714;23.732;2023-04-12T00:30:12;93430.44;;;7.85;94.02
11329;BME280;5719;42.714;23.732;2023-04-12T00:32:40;93397.94;;;7.73;92.80
11329;BME280;5719;42.714;23.732;2023-04-12T00:35:08;93431.81;;;8.00;91.90
11329;BME280;5719;42.714;23.732;2023-04-12T00:37:35;93429.81;;;8.04;91.83
11329;BME280;5719;42.714;23.732;2023-04-12T00:40:03;93428.44;;;7.88;92.02
11329;BME280;5719;42.714;23.732;2023-04-12T00:42:32;93430.78;;;7.80;93.28
11329;BME280;5719;42.714;23.732;2023-04-12T00:45:00;93423.66;;;7.73;93.96
11329;BME280;5719;42.714;23.732;2023-04-12T00:47:27;93429.63;;;7.84;94.88
11329;BME280;5719;42.714;23.732;2023-04-12T00:49:55;93429.63;;;7.84;96.07
11329;BME280;5719;42.714;23.732;2023-04-12T00:52:23;93437.84;;;7.78;96.83
11329;BME280;5719;42.714;23.732;2023-04-12T00:54:52;93437.13;;;7.76;96.40
11329;BME280;5719;42.714;23.732;2023-04-12T00:57:19;93432.94;;;7.75;96.90
11329;BME280;5719;42.714;23.732;2023-04-12T00:59:46;93424.50;;;7.73;97.47
11329;BME280;5719;42.714;23.732;2023-04-12T01:02:13;93412.81;;;7.69;98.46
11329;BME280;5719;42.714;23.732;2023-04-12T01:04:41;93420.31;;;7.61;98.83
11329;BME280;5719;42.714;23.732;2023-04-12T01:07:13;93428.50;;;7.55;99.88
11329;BME280;5719;42.714;23.732;2023-04-12T01:09:52;93420.19;;;7.52;100.00
11329;BME280;5719;42.714;23.732;2023-04-12T01:12:31;93425.47;;;7.61;99.85
11329;BME280;5719;42.714;23.732;2023-04-12T01:15:05;93412.38;;;7.53;100.00
11329;BME280;5719;42.714;23.732;2023-04-12T01:17:37;93409.91;;;7.52;100.00
11329;BME280;5719;42.714;23.732;2023-04-12T01:20:14;93416.44;;;7.56;99.97
11329;BME280;5719;42.714;23.732;2023-04-12T01:22:59;93408.38;;;7.60;99.81
11329;BME280;5719;42.714;23.732;2023-04-12T01:25:48;93405.34;;;7.66;99.36
11329;BME280;5719;42.714;23.732;2023-04-12T01:28:23;93400.09;;;7.57;98.91
11329;BME280;5719;42.714;23.732;2023-04-12T01:30:53;93402.91;;;7.43;100.00
11329;BME280;5719;42.714;23.732;2023-04-12T01:33:21;93392.50;;;7.33;100.00
11329;BME280;5719;42.714;23.732;2023-04-12T01:35:57;93389.25;;;7.31;100.00
11329;BME280;5719;42.714;23.732;2023-04-12T01:38:25;93395.31;;;7.30;100.00
11329;BME280;5719;42.714;23.732;2023-04-12T01:40:52;93393.56;;;7.19;100.00
11329;BME280;5719;42.714;23.732;2023-04-12T01:43:21;93393.91;;;7.26;100.00
11329;BME280;5719;42.714;23.732;2023-04-12T01:45:48;93393.22;;;7.35;100.00
11329;BME280;5719;42.714;23.732;2023-04-12T01:48:15;93398.34;;;7.35;99.76
11329;BME280;5719;42.714;23.732;2023-04-12T01:50:46;93397.88;;;7.30;100.00
11329;BME280;5719;42.714;23.732;2023-04-12T01:53:18;93392.06;;;7.39;100.00
11329;BME280;5719;42.714;23.732;2023-04-12T01:55:47;93361.06;;;7.07;100.00
11329;BME280;5719;42.714;23.732;2023-04-12T01:58:19;93386.91;;;7.28;100.00
11329;BME280;5719;42.714;23.732;2023-04-12T02:00:49;93394.63;;;7.28;100.00
11329;BME280;5719;42.714;23.732;2023-04-12T02:03:18;93390.75;;;7.33;100.00
11329;BME280;5719;42.714;23.732;2023-04-12T02:05:46;93385.75;;;7.21;100.00
11329;BME280;5719;42.714;23.732;2023-04-12T02:08:13;93383.19;;;7.10;100.00
11329;BME280;5719;42.714;23.732;2023-04-12T02:10:40;93386.78;;;7.18;100.00
11329;BME280;5719;42.714;23.732;2023-04-12T02:13:07;93393.09;;;7.25;100.00
11329;BME280;5719;42.714;23.732;2023-04-12T02:15:34;93385.94;;;7.18;100.00
11329;BME280;5719;42.714;23.732;2023-04-12T02:18:03;93396.59;;;7.13;100.00
11329;BME280;5719;42.714;23.732;2023-04-12T02:20:29;93385.94;;;7.18;100.00
11329;BME280;5719;42.714;23.732;2023-04-12T02:22:56;93389.94;;;7.33;100.00
11329;BME280;5719;42.714;23.732;2023-04-12T02:25:24;93394.50;;;7.29;100.00
11329;BME280;5719;42.714;23.732;2023-04-12T02:27:51;93394.50;;;7.29;100.00
11329;BME280;5719;42.714;23.732;2023-04-12T02:30:18;93387.16;;;7.25;100.00
11329;BME280;5719;42.714;23.732;2023-04-12T02:32:45;93382.22;;;7.22;100.00
11329;BME280;5719;42.714;23.732;2023-04-12T02:35:14;93388.75;;;7.26;100.00
11329;BME280;5719;42.714;23.732;2023-04-12T02:37:43;93393.66;;;7.29;100.00
11329;BME280;5719;42.714;23.732;2023-04-12T02:40:11;93389.25;;;7.20;100.00
11329;BME280;5719;42.714;23.732;2023-04-12T02:42:40;93366.34;;;7.17;100.00
11329;BME280;5719;42.714;23.732;2023-04-12T02:45:07;93399.75;;;7.39;100.00
11329;BME280;5719;42.714;23.732;2023-04-12T02:47:34;93391.09;;;7.18;100.00
11329;BME280;5719;42.714;23.732;2023-04-12T02:50:02;93395.22;;;7.20;100.00
11329;BME280;5719;42.714;23.732;2023-04-12T02:52:31;93381.28;;;7.12;100.00
11329;BME280;5719;42.714;23.732;2023-04-12T02:54:58;93388.19;;;7.33;100.00
11329;BME280;5719;42.714;23.732;2023-04-12T02:57:25;93383.63;;;7.37;100.00
11329;BME280;5719;42.714;23.732;2023-04-12T02:59:52;93394.28;;;7.10;100.00
11329;BME280;5719;42.714;23.732;2023-04-12T03:02:19;93392.28;;;6.92;100.00
11329;BME280;5719;42.714;23.732;2023-04-12T03:04:47;93393.22;;;7.02;100.00
11329;BME280;5719;42.714;23.732;2023-04-12T03:07:16;93385.84;;;6.97;100.00
11329;BME280;5719;42.714;23.732;2023-04-12T03:09:45;93388.06;;;6.90;100.00
11329;BME280;5719;42.714;23.732;2023-04-12T03:12:13;93393.44;;;6.99;100.00
11329;BME280;5719;42.714;23.732;2023-04-12T03:14:40;93389.72;;;7.03;100.00
11329;BME280;5719;42.714;23.732;2023-04-12T03:17:07;93390.41;;;7.16;100.00
11329;BME280;5719;42.714;23.732;2023-04-12T03:19:35;93382.81;;;7.14;100.00
11329;BME280;5719;42.714;23.732;2023-04-12T03:22:02;93395.06;;;7.11;100.00
11329;BME280;5719;42.714;23.732;2023-04-12T03:24:30;93371.72;;;7.03;100.00
11329;BME280;5719;42.714;23.732;2023-04-12T03:27:00;93388.88;;;7.02;100.00
11329;BME280;5719;42.714;23.732;2023-04-12T03:29:28;93383.19;;;7.10;100.00
11329;BME280;5719;42.714;23.732;2023-04-12T03:31:55;93388.31;;;7.10;100.00
11329;BME280;5719;42.714;23.732;2023-04-12T03:34:24;93390.50;;;7.03;100.00
11329;BME280;5719;42.714;23.732;2023-04-12T03:36:52;93387.84;;;7.05;100.00
11329;BME280;5719;42.714;23.732;2023-04-12T03:39:19;93380.09;;;6.82;100.00
11329;BME280;5719;42.714;23.732;2023-04-12T03:41:46;93387.34;;;7.00;100.00
11329;BME280;5719;42.714;23.732;2023-04-12T03:44:14;93389.25;;;7.09;100.00
11329;BME280;5719;42.714;23.732;2023-04-12T03:46:41;93384.56;;;7.03;100.00
11329;BME280;5719;42.714;23.732;2023-04-12T03:49:08;93388.41;;;7.08;100.00
11329;BME280;5719;42.714;23.732;2023-04-12T03:51:35;93385.50;;;6.90;100.00
11329;BME280;5719;42.714;23.732;2023-04-12T03:54:07;93386.31;;;6.91;100.00
11329;BME280;5719;42.714;23.732;2023-04-12T03:56:34;93398.34;;;6.90;100.00
11329;BME280;5719;42.714;23.732;2023-04-12T03:59:03;93389.69;;;6.92;100.00
11329;BME280;5719;42.714;23.732;2023-04-12T04:01:31;93390.63;;;6.90;100.00
11329;BME280;5719;42.714;23.732;2023-04-12T04:03:58;93384.19;;;6.96;100.00
11329;BME280;5719;42.714;23.732;2023-04-12T04:06:25;93392.72;;;6.97;100.00
11329;BME280;5719;42.714;23.732;2023-04-12T04:08:54;93380.69;;;6.86;100.00
11329;BME280;5719;42.714;23.732;2023-04-12T04:11:21;93386.56;;;6.99;100.00
11329;BME280;5719;42.714;23.732;2023-04-12T04:13:48;93391.31;;;7.04;100.00
11329;BME280;5719;42.714;23.732;2023-04-12T04:16:15;93385.59;;;7.11;100.00
11329;BME280;5719;42.714;23.732;2023-04-12T04:18:43;93388.53;;;7.18;100.00
11329;BME280;5719;42.714;23.732;2023-04-12T04:21:10;93392.97;;;7.16;100.00
11329;BME280;5719;42.714;23.732;2023-04-12T04:23:38;93403.94;;;7.18;100.00
11329;BME280;5719;42.714;23.732;2023-04-12T04:26:09;93402.19;;;7.18;100.00
11329;BME280;5719;42.714;23.732;2023-04-12T04:28:39;93416.78;;;7.18;100.00
11329;BME280;5719;42.714;23.732;2023-04-12T04:31:06;93405.00;;;7.26;100.00
11329;BME280;5719;42.714;23.732;2023-04-12T04:33:34;93410.72;;;7.30;100.00
11329;BME280;5719;42.714;23.732;2023-04-12T04:36:04;93420.31;;;7.28;100.00
11329;BME280;5719;42.714;23.732;2023-04-12T04:38:31;93425.47;;;7.39;100.00
11329;BME280;5719;42.714;23.732;2023-04-12T04:40:59;93387.38;;;7.22;100.00
11329;BME280;5719;42.714;23.732;2023-04-12T04:43:26;93421.00;;;7.52;100.00
11329;BME280;5719;42.714;23.732;2023-04-12T04:45:55;93418.69;;;7.60;100.00
11329;BME280;5719;42.714;23.732;2023-04-12T04:48:22;93429.06;;;7.70;100.00
11329;BME280;5719;42.714;23.732;2023-04-12T04:50:49;93440.06;;;7.83;100.00
11329;BME280;5719;42.714;23.732;2023-04-12T04:53:22;93434.78;;;7.73;100.00
11329;BME280;5719;42.714;23.732;2023-04-12T04:55:55;93438.28;;;7.72;100.00
11329;BME280;5719;42.714;23.732;2023-04-12T04:58:22;93436.19;;;7.66;100.00
11329;BME280;5719;42.714;23.732;2023-04-12T05:00:49;93440.19;;;7.59;100.00
11329;BME280;5719;42.714;23.732;2023-04-12T05:03:20;93438.19;;;7.63;100.00
11329;BME280;5719;42.714;23.732;2023-04-12T05:05:47;93433.38;;;7.69;100.00
11329;BME280;5719;42.714;23.732;2023-04-12T05:08:14;93432.09;;;7.75;100.00
11329;BME280;5719;42.714;23.732;2023-04-12T05:10:43;93444.94;;;7.97;100.00
11329;BME280;5719;42.714;23.732;2023-04-12T05:13:10;93451.13;;;7.95;100.00
11329;BME280;5719;42.714;23.732;2023-04-12T05:15:39;93457.41;;;8.02;100.00
11329;BME280;5719;42.714;23.732;2023-04-12T05:18:06;93459.25;;;8.22;100.00
11329;BME280;5719;42.714;23.732;2023-04-12T05:20:33;93457.38;;;8.35;100.00
11329;BME280;5719;42.714;23.732;2023-04-12T05:23:00;93466.34;;;8.52;100.00
11329;BME280;5719;42.714;23.732;2023-04-12T05:25:26;93457.13;;;8.70;100.00
11329;BME280;5719;42.714;23.732;2023-04-12T05:27:55;93458.38;;;8.75;100.00
11329;BME280;5719;42.714;23.732;2023-04-12T05:30:22;93465.63;;;8.81;100.00
11329;BME280;5719;42.714;23.732;2023-04-12T05:32:49;93466.38;;;8.72;100.00
11329;BME280;5719;42.714;23.732;2023-04-12T05:35:16;93459.56;;;8.71;100.00
11329;BME280;5719;42.714;23.732;2023-04-12T05:37:43;93458.00;;;8.59;100.00
11329;BME280;5719;42.714;23.732;2023-04-12T05:40:10;93460.13;;;8.54;100.00
11329;BME280;5719;42.714;23.732;2023-04-12T05:42:37;93474.22;;;8.39;100.00
11329;BME280;5719;42.714;23.732;2023-04-12T05:45:06;93466.75;;;8.36;100.00
11329;BME280;5719;42.714;23.732;2023-04-12T05:47:35;93468.78;;;8.53;100.00
11329;BME280;5719;42.714;23.732;2023-04-12T05:50:02;93465.34;;;8.32;100.00
11329;BME280;5719;42.714;23.732;2023-04-12T05:52:29;93443.84;;;8.11;100.00
11329;BME280;5719;42.714;23.732;2023-04-12T05:54:56;93478.47;;;8.29;100.00
11329;BME280;5719;42.714;23.732;2023-04-12T05:57:24;93463.03;;;8.29;100.00
11329;BME280;5719;42.714;23.732;2023-04-12T05:59:50;93471.53;;;8.41;99.76
11329;BME280;5719;42.714;23.732;2023-04-12T06:02:19;93455.72;;;8.45;87.15
11329;BME280;5719;42.714;23.732;2023-04-12T06:04:46;93460.06;;;8.65;78.28
11329;BME280;5719;42.714;23.732;2023-04-12T06:07:13;93467.72;;;8.88;76.13
11329;BME280;5719;42.714;23.732;2023-04-12T06:09:42;93461.09;;;8.95;73.45
11329;BME280;5719;42.714;23.732;2023-04-12T06:12:09;93463.38;;;9.09;73.50
11329;BME280;5719;42.714;23.732;2023-04-12T06:14:35;93465.00;;;9.10;74.81
11329;BME280;5719;42.714;23.732;2023-04-12T06:17:02;93476.06;;;9.01;83.10
11329;BME280;5719;42.714;23.732;2023-04-12T06:19:31;93472.91;;;8.97;88.34
11329;BME280;5719;42.714;23.732;2023-04-12T06:21:58;93475.81;;;9.04;89.86
11329;BME280;5719;42.714;23.732;2023-04-12T06:24:24;93468.97;;;8.93;93.00
11329;BME280;5719;42.714;23.732;2023-04-12T06:26:51;93478.06;;;8.76;94.29
11329;BME280;5719;42.714;23.732;2023-04-12T06:29:18;93486.31;;;8.70;95.63
11329;BME280;5719;42.714;23.732;2023-04-12T06:31:45;93487.75;;;8.63;97.56
11329;BME280;5719;42.714;23.732;2023-04-12T06:34:12;93497.84;;;8.76;96.63
11329;BME280;5719;42.714;23.732;2023-04-12T06:36:41;93487.34;;;8.68;95.72
11329;BME280;5719;42.714;23.732;2023-04-12T06:39:10;93491.63;;;8.78;94.95
11329;BME280;5719;42.714;23.732;2023-04-12T06:41:38;93481.72;;;8.74;94.42
11329;BME280;5719;42.714;23.732;2023-04-12T06:44:08;93477.88;;;8.89;96.33
11329;BME280;5719;42.714;23.732;2023-04-12T06:46:35;93480.34;;;8.91;96.02
11329;BME280;5719;42.714;23.732;2023-04-12T06:49:02;93451.94;;;8.81;93.61
11329;BME280;5719;42.714;23.732;2023-04-12T06:51:29;93439.66;;;8.73;93.04
11329;BME280;5719;42.714;23.732;2023-04-12T06:53:57;93448.22;;;8.95;91.55
11329;BME280;5719;42.714;23.732;2023-04-12T06:56:24;93469.09;;;8.92;92.66
11329;BME280;5719;42.714;23.732;2023-04-12T06:58:51;93447.16;;;8.76;91.39
11329;BME280;5719;42.714;23.732;2023-04-12T07:01:18;93473.13;;;8.84;92.84
11329;BME280;5719;42.714;23.732;2023-04-12T07:03:45;93464.69;;;8.82;90.53
11329;BME280;5719;42.714;23.732;2023-04-12T07:06:12;93481.81;;;8.72;92.08
11329;BME280;5719;42.714;23.732;2023-04-12T07:08:39;93467.03;;;8.54;91.97
11329;BME280;5719;42.714;23.732;2023-04-12T07:11:08;93467.25;;;8.62;91.05
11329;BME280;5719;42.714;23.732;2023-04-12T07:13:34;93481.38;;;8.67;89.73
11329;BME280;5719;42.714;23.732;2023-04-12T07:16:02;93483.59;;;8.72;90.92
11329;BME280;5719;42.714;23.732;2023-04-12T07:18:28;93467.31;;;8.71;87.81
11329;BME280;5719;42.714;23.732;2023-04-12T07:20:57;93479.00;;;8.75;89.32
11329;BME280;5719;42.714;23.732;2023-04-12T07:23:24;93473.63;;;8.67;88.18
11329;BME280;5719;42.714;23.732;2023-04-12T07:25:52;93476.16;;;8.78;86.39
11329;BME280;5719;42.714;23.732;2023-04-12T07:28:20;93471.47;;;8.83;86.25
11329;BME280;5719;42.714;23.732;2023-04-12T07:30:47;93466.53;;;8.92;85.62
11329;BME280;5719;42.714;23.732;2023-04-12T07:33:14;93476.78;;;9.03;83.32
11329;BME280;5719;42.714;23.732;2023-04-12T07:35:41;93463.31;;;8.99;83.47
11329;BME280;5719;42.714;23.732;2023-04-12T07:38:08;93424.41;;;8.81;82.79
11329;BME280;5719;42.714;23.732;2023-04-12T07:40:35;93473.06;;;8.96;82.63
11329;BME280;5719;42.714;23.732;2023-04-12T07:43:03;93468.72;;;9.17;81.43
11329;BME280;5719;42.714;23.732;2023-04-12T07:45:32;93462.38;;;9.21;82.03
11329;BME280;5719;42.714;23.732;2023-04-12T07:48:02;93467.38;;;9.43;83.27
11329;BME280;5719;42.714;23.732;2023-04-12T07:50:29;93461.22;;;9.65;81.83
11329;BME280;5719;42.714;23.732;2023-04-12T07:53:10;93450.56;;;9.79;80.05
11329;BME280;5719;42.714;23.732;2023-04-12T07:55:46;93450.50;;;10.09;77.89
11329;BME280;5719;42.714;23.732;2023-04-12T07:58:13;93437.41;;;10.41;74.25
11329;BME280;5719;42.714;23.732;2023-04-12T08:00:42;93446.00;;;10.70;74.13
11329;BME280;5719;42.714;23.732;2023-04-12T08:03:10;93435.34;;;10.83;72.90
11329;BME280;5719;42.714;23.732;2023-04-12T08:05:38;93421.72;;;11.10;70.71
11329;BME280;5719;42.714;23.732;2023-04-12T08:08:06;93422.53;;;11.01;68.28
11329;BME280;5719;42.714;23.732;2023-04-12T08:10:34;93402.44;;;11.41;67.03
11329;BME280;5719;42.714;23.732;2023-04-12T08:13:02;93427.97;;;11.63;68.20
11329;BME280;5719;42.714;23.732;2023-04-12T08:15:29;93423.47;;;11.75;67.32
11329;BME280;5719;42.714;23.732;2023-04-12T08:17:57;93419.22;;;11.84;65.79
11329;BME280;5719;42.714;23.732;2023-04-12T08:20:25;93426.16;;;11.83;67.13
11329;BME280;5719;42.714;23.732;2023-04-12T08:22:52;93426.31;;;12.09;65.86
11329;BME280;5719;42.714;23.732;2023-04-12T08:25:19;93412.41;;;12.27;65.47
11329;BME280;5719;42.714;23.732;2023-04-12T08:27:48;93412.16;;;12.21;63.63
11329;BME280;5719;42.714;23.732;2023-04-12T08:30:15;93414.44;;;12.51;63.29
11329;BME280;5719;42.714;23.732;2023-04-12T08:32:42;93411.75;;;12.61;59.33
11329;BME280;5719;42.714;23.732;2023-04-12T08:35:11;93390.78;;;12.72;57.78
11329;BME280;5719;42.714;23.732;2023-04-12T08:37:38;93380.72;;;12.51;58.29
11329;BME280;5719;42.714;23.732;2023-04-12T08:40:06;93396.56;;;12.84;57.74
11329;BME280;5719;42.714;23.732;2023-04-12T08:42:33;93384.78;;;12.89;57.67
11329;BME280;5719;42.714;23.732;2023-04-12T08:45:05;93387.75;;;13.46;56.61
11329;BME280;5719;42.714;23.732;2023-04-12T08:47:33;93377.56;;;13.52;55.30
11329;BME280;5719;42.714;23.732;2023-04-12T08:50:02;93379.09;;;13.63;55.31
11329;BME280;5719;42.714;23.732;2023-04-12T08:52:35;93389.66;;;13.10;57.74
11329;BME280;5719;42.714;23.732;2023-04-12T08:55:02;93384.53;;;13.18;57.12
11329;BME280;5719;42.714;23.732;2023-04-12T08:57:29;93379.59;;;13.33;54.56
11329;BME280;5719;42.714;23.732;2023-04-12T08:59:58;93374.72;;;13.12;53.93
11329;BME280;5719;42.714;23.732;2023-04-12T09:02:26;93367.75;;;12.69;55.42
11329;BME280;5719;42.714;23.732;2023-04-12T09:04:54;93378.78;;;13.32;54.33
11329;BME280;5719;42.714;23.732;2023-04-12T09:07:22;93377.34;;;13.71;53.02
11329;BME280;5719;42.714;23.732;2023-04-12T09:09:55;93363.63;;;13.53;52.16
11329;BME280;5719;42.714;23.732;2023-04-12T09:12:22;93364.63;;;13.60;52.82
11329;BME280;5719;42.714;23.732;2023-04-12T09:15:04;93357.81;;;13.59;52.49
11329;BME280;5719;42.714;23.732;2023-04-12T09:17:34;93339.00;;;13.06;51.94
11329;BME280;5719;42.714;23.732;2023-04-12T09:20:26;93349.78;;;13.11;50.93
11329;BME280;5719;42.714;23.732;2023-04-12T09:22:53;93353.00;;;13.72;51.40
11329;BME280;5719;42.714;23.732;2023-04-12T09:25:39;93344.88;;;13.67;50.23
11329;BME280;5719;42.714;23.732;2023-04-12T09:28:20;93354.47;;;14.17;48.89
11329;BME280;5719;42.714;23.732;2023-04-12T09:30:47;93326.97;;;13.98;48.63
11329;BME280;5719;42.714;23.732;2023-04-12T09:33:20;93332.75;;;14.42;49.05
11329;BME280;5719;42.714;23.732;2023-04-12T09:35:48;93320.06;;;14.80;46.89
11329;BME280;5719;42.714;23.732;2023-04-12T09:38:15;93332.63;;;14.10;47.86
11329;BME280;5719;42.714;23.732;2023-04-12T09:40:44;93335.59;;;14.15;47.12
11329;BME280;5719;42.714;23.732;2023-04-12T09:43:11;93329.44;;;14.32;47.53
11329;BME280;5719;42.714;23.732;2023-04-12T09:45:38;93329.75;;;14.29;47.11
11329;BME280;5719;42.714;23.732;2023-04-12T09:48:05;93320.66;;;14.17;46.67
11329;BME280;5719;42.714;23.732;2023-04-12T09:50:33;93308.41;;;13.93;47.17
11329;BME280;5719;42.714;23.732;2023-04-12T09:53:02;93332.22;;;13.72;46.18
11329;BME280;5719;42.714;23.732;2023-04-12T09:55:30;93345.03;;;13.66;48.34
11329;BME280;5719;42.714;23.732;2023-04-12T09:58:02;93325.47;;;13.46;47.11
11329;BME280;5719;42.714;23.732;2023-04-12T10:00:31;93330.56;;;13.04;47.65
11329;BME280;5719;42.714;23.732;2023-04-12T10:02:59;93327.00;;;13.31;47.23
11329;BME280;5719;42.714;23.732;2023-04-12T10:05:27;93315.78;;;13.30;46.92
11329;BME280;5719;42.714;23.732;2023-04-12T10:07:54;93327.41;;;13.86;45.64
11329;BME280;5719;42.714;23.732;2023-04-12T10:10:23;93304.78;;;14.77;46.51
11329;BME280;5719;42.714;23.732;2023-04-12T10:12:50;93296.81;;;15.57;43.68
11329;BME280;5719;42.714;23.732;2023-04-12T10:15:19;93305.34;;;15.82;43.36
11329;BME280;5719;42.714;23.732;2023-04-12T10:17:48;93285.63;;;15.49;40.94
11329;BME280;5719;42.714;23.732;2023-04-12T10:20:16;93305.47;;;15.42;41.77
11329;BME280;5719;42.714;23.732;2023-04-12T10:22:45;93289.09;;;15.17;40.74
11329;BME280;5719;42.714;23.732;2023-04-12T10:25:13;93288.16;;;14.29;41.08
11329;BME280;5719;42.714;23.732;2023-04-12T10:27:41;93291.03;;;13.94;40.60
11329;BME280;5719;42.714;23.732;2023-04-12T10:30:21;93285.22;;;13.50;41.26
11329;BME280;5719;42.714;23.732;2023-04-12T10:32:52;93271.72;;;13.38;41.80
11329;BME280;5719;42.714;23.732;2023-04-12T10:35:53;93261.41;;;13.54;41.83
11329;BME280;5719;42.714;23.732;2023-04-12T10:38:21;93266.31;;;13.23;41.97
11329;BME280;5719;42.714;23.732;2023-04-12T10:41:10;93261.22;;;13.56;41.04
11329;BME280;5719;42.714;23.732;2023-04-12T10:43:38;93242.44;;;13.62;40.05
11329;BME280;5719;42.714;23.732;2023-04-12T10:46:06;93224.31;;;14.18;40.25
11329;BME280;5719;42.714;23.732;2023-04-12T10:48:36;93245.69;;;15.01;41.58
11329;BME280;5719;42.714;23.732;2023-04-12T10:51:21;93224.75;;;14.87;39.31
11329;BME280;5719;42.714;23.732;2023-04-12T10:53:50;93239.75;;;14.12;40.09
11329;BME280;5719;42.714;23.732;2023-04-12T10:56:41;93243.13;;;13.88;40.04
11329;BME280;5719;42.714;23.732;2023-04-12T10:59:09;93239.25;;;13.34;40.42
11329;BME280;5719;42.714;23.732;2023-04-12T11:01:39;93235.34;;;12.96;40.71
11329;BME280;5719;42.714;23.732;2023-04-12T11:04:08;93239.03;;;12.94;40.31
11329;BME280;5719;42.714;23.732;2023-04-12T11:06:47;93246.25;;;13.08;40.37
11329;BME280;5719;42.714;23.732;2023-04-12T11:09:19;93248.84;;;13.08;40.42
11329;BME280;5719;42.714;23.732;2023-04-12T11:11:47;93264.84;;;12.95;40.22
11329;BME280;5719;42.714;23.732;2023-04-12T11:14:15;93225.31;;;12.67;41.27
11329;BME280;5719;42.714;23.732;2023-04-12T11:17:20;93264.06;;;13.03;40.86
11329;BME280;5719;42.714;23.732;2023-04-12T11:19:50;93264.84;;;13.21;39.26
11329;BME280;5719;42.714;23.732;2023-04-12T11:22:19;93272.22;;;13.42;39.30
11329;BME280;5719;42.714;23.732;2023-04-12T11:24:48;93273.72;;;13.52;39.03
11329;BME280;5719;42.714;23.732;2023-04-12T11:27:17;93274.44;;;13.79;36.15
11329;BME280;5719;42.714;23.732;2023-04-12T11:29:47;93271.59;;;14.87;37.64
11329;BME280;5719;42.714;23.732;2023-04-12T11:32:14;93268.75;;;16.06;33.94
11329;BME280;5719;42.714;23.732;2023-04-12T11:34:44;93245.38;;;16.58;33.22
11329;BME280;5719;42.714;23.732;2023-04-12T11:37:11;93264.03;;;16.47;33.33
11329;BME280;5719;42.714;23.732;2023-04-12T11:39:40;93250.34;;;16.45;32.13
11329;BME280;5719;42.714;23.732;2023-04-12T11:42:12;93263.00;;;16.34;33.35
11329;BME280;5719;42.714;23.732;2023-04-12T11:44:40;93262.44;;;16.46;33.23
11329;BME280;5719;42.714;23.732;2023-04-12T11:47:15;93259.50;;;16.18;33.57
11329;BME280;5719;42.714;23.732;2023-04-12T11:49:44;93259.25;;;16.59;34.71
11329;BME280;5719;42.714;23.732;2023-04-12T11:52:11;93258.16;;;17.20;32.28
11329;BME280;5719;42.714;23.732;2023-04-12T11:54:44;93253.31;;;17.61;32.93
11329;BME280;5719;42.714;23.732;2023-04-12T11:57:12;93258.06;;;17.87;30.52
11329;BME280;5719;42.714;23.732;2023-04-12T11:59:42;93252.53;;;18.32;31.36
11329;BME280;5719;42.714;23.732;2023-04-12T12:02:10;93226.00;;;18.56;30.85
11329;BME280;5719;42.714;23.732;2023-04-12T12:04:38;93237.63;;;17.76;30.48
11329;BME280;5719;42.714;23.732;2023-04-12T12:07:08;93268.16;;;17.16;30.81
11329;BME280;5719;42.714;23.732;2023-04-12T12:09:38;93255.69;;;16.75;32.06
11329;BME280;5719;42.714;23.732;2023-04-12T12:12:05;93254.56;;;16.01;32.35
11329;BME280;5719;42.714;23.732;2023-04-12T12:14:33;93283.94;;;15.56;33.01
11329;BME280;5719;42.714;23.732;2023-04-12T12:17:02;93282.59;;;15.13;33.98
11329;BME280;5719;42.714;23.732;2023-04-12T12:19:37;93263.09;;;15.95;32.19
11329;BME280;5719;42.714;23.732;2023-04-12T12:22:11;93275.50;;;16.84;30.63
11329;BME280;5719;42.714;23.732;2023-04-12T12:24:38;93247.19;;;17.69;28.40
11329;BME280;5719;42.714;23.732;2023-04-12T12:27:10;93263.91;;;18.46;25.88
11329;BME280;5719;42.714;23.732;2023-04-12T12:29:37;93274.00;;;18.49;26.28
11329;BME280;5719;42.714;23.732;2023-04-12T12:32:09;93260.38;;;19.02;26.84
11329;BME280;5719;42.714;23.732;2023-04-12T12:34:36;93265.19;;;18.99;28.71
11329;BME280;5719;42.714;23.732;2023-04-12T12:37:07;93254.41;;;17.67;29.42
11329;BME280;5719;42.714;23.732;2023-04-12T12:39:36;93268.56;;;17.57;26.86
11329;BME280;5719;42.714;23.732;2023-04-12T12:42:04;93278.81;;;17.74;26.90
11329;BME280;5719;42.714;23.732;2023-04-12T12:44:31;93282.84;;;17.47;24.66
11329;BME280;5719;42.714;23.732;2023-04-12T12:46:59;93288.38;;;17.37;24.95
11329;BME280;5719;42.714;23.732;2023-04-12T12:49:27;93305.41;;;17.48;25.60
11329;BME280;5719;42.714;23.732;2023-04-12T12:51:54;93288.53;;;16.84;28.17
11329;BME280;5719;42.714;23.732;2023-04-12T12:54:21;93291.09;;;16.92;27.89
11329;BME280;5719;42.714;23.732;2023-04-12T12:56:50;93291.63;;;17.02;29.67
11329;BME280;5719;42.714;23.732;2023-04-12T12:59:17;93292.06;;;16.91;30.29
11329;BME280;5719;42.714;23.732;2023-04-12T13:01:44;93278.41;;;16.43;31.33
11329;BME280;5719;42.714;23.732;2023-04-12T13:04:10;93281.97;;;17.54;28.80
11329;BME280;5719;42.714;23.732;2023-04-12T13:06:37;93277.34;;;18.57;26.35
11329;BME280;5719;42.714;23.732;2023-04-12T13:09:04;93273.28;;;19.32;24.71
11329;BME280;5719;42.714;23.732;2023-04-12T13:11:32;93276.97;;;19.72;24.34